createdAt,value
2018-12-04T00:01:12.334Z,0.60
2018-12-04T00:03:38.580Z,0.50
2018-12-04T00:06:04.701Z,0.60
2018-12-04T00:08:30.797Z,0.67
2018-12-04T00:10:57.103Z,1.57
2018-12-04T00:13:23.434Z,0.75
2018-12-04T00:15:50.336Z,0.50
2018-12-04T00:18:16.422Z,0.77
2018-12-04T00:20:42.819Z,0.60
2018-12-04T00:23:09.063Z,0.60
2018-12-04T00:25:35.178Z,2.10
2018-12-04T00:28:01.456Z,0.68
2018-12-04T00:30:27.736Z,0.60
2018-12-04T00:32:53.931Z,1.55
2018-12-04T00:35:20.119Z,1.40
2018-12-04T00:37:46.216Z,2.83
2018-12-04T00:40:12.630Z,0.80
2018-12-04T00:42:39.034Z,0.70
2018-12-04T00:45:06.035Z,0.70
2018-12-04T00:47:32.342Z,1.00
2018-12-04T00:49:58.428Z,1.35
2018-12-04T00:52:24.649Z,0.60
2018-12-04T00:54:50.885Z,0.90
2018-12-04T00:57:16.983Z,0.93
2018-12-04T00:59:43.064Z,0.80
2018-12-04T01:02:09.366Z,2.00
2018-12-04T01:04:35.682Z,0.60
2018-12-04T01:07:01.963Z,0.70
2018-12-04T01:09:28.076Z,0.60
2018-12-04T01:11:54.289Z,3.00
2018-12-04T01:14:22.120Z,0.70
2018-12-04T01:16:48.432Z,0.67
2018-12-04T01:19:14.633Z,3.13
2018-12-04T01:21:40.839Z,0.60
2018-12-04T01:24:07.089Z,1.27
2018-12-04T01:26:33.332Z,0.80
2018-12-04T01:28:59.665Z,0.90
2018-12-04T01:31:25.896Z,1.00
2018-12-04T01:33:52.031Z,0.90
2018-12-04T01:36:18.174Z,1.27
2018-12-04T01:38:44.435Z,1.00
2018-12-04T01:41:10.625Z,0.80
2018-12-04T01:43:36.874Z,0.60
2018-12-04T01:46:03.102Z,0.70
2018-12-04T01:48:29.241Z,3.80
2018-12-04T01:50:55.403Z,0.98
2018-12-04T01:53:21.508Z,0.80
2018-12-04T01:55:47.781Z,0.80
2018-12-04T01:58:13.932Z,0.60
2018-12-04T02:00:42.990Z,1.20
2018-12-04T02:03:09.150Z,1.63
2018-12-04T02:05:35.374Z,0.70
2018-12-04T02:08:01.586Z,0.93
2018-12-04T02:10:27.694Z,1.10
2018-12-04T02:12:53.787Z,1.60
2018-12-04T02:15:20.090Z,1.55
2018-12-04T02:17:46.303Z,1.63
2018-12-04T02:20:12.597Z,1.33
2018-12-04T02:22:38.844Z,2.37
2018-12-04T02:25:05.288Z,2.77
2018-12-04T02:27:31.397Z,1.70
2018-12-04T02:29:57.640Z,0.60
2018-12-04T02:32:23.750Z,1.80
2018-12-04T02:34:49.916Z,2.70
2018-12-04T02:37:16.078Z,1.67
2018-12-04T02:39:42.181Z,1.40
2018-12-04T02:42:08.413Z,2.10
2018-12-04T02:44:34.518Z,2.42
2018-12-04T02:47:00.768Z,1.90
2018-12-04T02:49:26.854Z,1.90
2018-12-04T02:51:52.980Z,1.15
2018-12-04T02:54:19.122Z,1.00
2018-12-04T02:56:45.418Z,8.00
2018-12-04T02:59:11.510Z,1.60
2018-12-04T03:01:37.715Z,2.83
2018-12-04T03:04:03.970Z,2.03
2018-12-04T03:06:30.197Z,1.40
2018-12-04T03:08:56.299Z,3.73
2018-12-04T03:11:22.397Z,3.67
2018-12-04T03:13:48.624Z,3.47
2018-12-04T03:16:14.729Z,5.23
2018-12-04T03:18:40.851Z,2.10
2018-12-04T03:21:07.047Z,4.28
2018-12-04T03:23:33.195Z,4.00
2018-12-04T03:25:59.410Z,2.77
2018-12-04T03:28:25.716Z,3.90
2018-12-04T03:30:51.948Z,2.43
2018-12-04T03:33:36.275Z,5.23
2018-12-04T03:36:02.739Z,3.93
2018-12-04T03:38:28.829Z,1.70
2018-12-04T03:40:54.921Z,2.67
2018-12-04T03:43:21.351Z,1.63
2018-12-04T03:45:47.546Z,5.00
2018-12-04T03:48:13.744Z,3.27
2018-12-04T03:50:40.134Z,3.40
2018-12-04T03:53:06.360Z,4.90
2018-12-04T03:55:32.557Z,1.53
2018-12-04T03:57:58.814Z,1.70
2018-12-04T04:00:24.908Z,5.80
2018-12-04T04:02:51.160Z,3.17
2018-12-04T04:05:18.993Z,3.13
2018-12-04T04:07:45.137Z,4.40
2018-12-04T04:10:11.353Z,1.13
2018-12-04T04:12:37.774Z,2.47
2018-12-04T04:15:04.362Z,4.70
2018-12-04T04:17:30.475Z,3.35
2018-12-04T04:19:56.579Z,1.67
2018-12-04T04:22:22.708Z,1.90
2018-12-04T04:24:56.038Z,2.97
2018-12-04T04:27:22.399Z,2.50
2018-12-04T04:29:48.561Z,1.30
2018-12-04T04:32:14.748Z,3.90
2018-12-04T04:34:40.891Z,1.17
2018-12-04T04:37:07.101Z,2.20
2018-12-04T04:39:33.338Z,1.95
2018-12-04T04:41:59.596Z,2.53
2018-12-04T04:44:25.834Z,1.93
2018-12-04T04:46:52.261Z,2.50
2018-12-04T04:49:18.490Z,3.23
2018-12-04T04:51:44.818Z,1.47
2018-12-04T04:54:11.108Z,1.73
2018-12-04T04:56:37.318Z,1.13
2018-12-04T04:59:03.785Z,1.23
2018-12-04T05:01:30.138Z,4.60
2018-12-04T05:03:56.358Z,2.60
2018-12-04T05:06:22.593Z,3.17
2018-12-04T05:08:48.810Z,7.97
2018-12-04T05:11:15.161Z,3.87
2018-12-04T05:13:42.566Z,3.33
2018-12-04T05:16:08.810Z,3.90
2018-12-04T05:18:35.142Z,0.90
2018-12-04T05:21:01.433Z,1.20
2018-12-04T05:23:27.534Z,1.20
2018-12-04T05:25:53.694Z,0.70
2018-12-04T05:28:19.926Z,1.20
2018-12-04T05:30:46.079Z,2.17
2018-12-04T05:33:12.234Z,2.58
2018-12-04T05:35:38.446Z,1.43
2018-12-04T05:38:04.674Z,4.30
2018-12-04T05:40:31.027Z,2.33
2018-12-04T05:42:57.169Z,2.10
2018-12-04T05:45:23.429Z,2.90
2018-12-04T05:47:49.579Z,2.77
2018-12-04T05:50:15.737Z,4.73
2018-12-04T05:52:41.966Z,5.30
2018-12-04T05:55:08.195Z,6.97
2018-12-04T05:57:34.378Z,9.20
2018-12-04T06:00:00.634Z,1.30
2018-12-04T06:02:26.920Z,4.03
2018-12-04T06:04:53.060Z,6.70
2018-12-04T06:07:19.295Z,5.97
2018-12-04T06:09:45.565Z,3.25
2018-12-04T06:12:11.954Z,4.03
2018-12-04T06:14:38.213Z,6.35
2018-12-04T06:17:04.570Z,8.03
2018-12-04T06:19:30.813Z,7.30
2018-12-04T06:21:57.024Z,4.20
2018-12-04T06:24:23.142Z,3.17
2018-12-04T06:26:49.964Z,4.03
2018-12-04T06:29:16.217Z,6.13
2018-12-04T06:34:21.762Z,10.20
2018-12-04T06:36:48.015Z,5.05
2018-12-04T06:39:14.456Z,6.90
2018-12-04T06:41:40.701Z,8.63
2018-12-04T06:44:06.908Z,3.83
2018-12-04T06:46:33.124Z,8.40
2018-12-04T06:48:59.444Z,8.40
2018-12-04T06:51:25.672Z,12.50
2018-12-04T06:53:51.784Z,7.47
2018-12-04T06:56:18.081Z,14.70
2018-12-04T06:58:44.326Z,5.25
2018-12-04T07:01:10.485Z,7.33
2018-12-04T07:03:36.601Z,16.77
2018-12-04T07:06:02.950Z,10.80
2018-12-04T07:08:29.176Z,7.40
2018-12-04T07:10:55.282Z,7.20
2018-12-04T07:13:21.385Z,11.93
2018-12-04T07:15:47.601Z,6.72
2018-12-04T07:18:13.902Z,14.20
2018-12-04T07:20:40.115Z,15.80
2018-12-04T07:23:06.345Z,14.75
2018-12-04T07:25:32.625Z,12.37
2018-12-04T07:27:58.842Z,10.93
2018-12-04T07:30:25.160Z,13.53
2018-12-04T07:32:51.340Z,9.53
2018-12-04T07:35:17.496Z,9.37
2018-12-04T07:37:44.018Z,15.60
2018-12-04T07:40:10.426Z,8.80
2018-12-04T07:42:36.748Z,7.42
2018-12-04T07:45:04.270Z,8.67
2018-12-04T07:47:30.458Z,15.50
2018-12-04T07:49:56.651Z,9.50
2018-12-04T07:52:23.006Z,8.40
2018-12-04T07:54:49.143Z,12.00
2018-12-04T07:57:15.379Z,11.40
2018-12-04T07:59:41.518Z,11.95
2018-12-04T08:02:07.651Z,10.97
2018-12-04T08:04:33.965Z,7.37
2018-12-04T08:07:00.236Z,8.68
2018-12-04T08:09:26.345Z,14.90
2018-12-04T08:11:52.526Z,8.30
2018-12-04T08:14:19.632Z,18.00
2018-12-04T08:16:45.885Z,11.37
2018-12-04T08:19:12.012Z,13.90
2018-12-04T08:21:38.275Z,17.07
2018-12-04T08:24:04.681Z,11.33
2018-12-04T08:26:31.161Z,15.45
2018-12-04T08:28:57.255Z,9.33
2018-12-04T08:31:23.436Z,14.43
2018-12-04T08:33:49.534Z,11.07
2018-12-04T08:36:15.814Z,22.77
2018-12-04T08:38:41.942Z,14.83
2018-12-04T08:41:08.149Z,15.90
2018-12-04T08:43:34.380Z,14.45
2018-12-04T08:46:00.528Z,13.03
2018-12-04T08:48:26.660Z,14.40
2018-12-04T08:50:52.842Z,10.50
2018-12-04T08:53:19.170Z,15.57
2018-12-04T08:55:45.287Z,14.30
2018-12-04T08:58:11.539Z,8.70
2018-12-04T09:00:37.866Z,20.80
2018-12-04T09:03:04.235Z,10.05
2018-12-04T09:05:30.395Z,11.20
2018-12-04T09:07:56.515Z,16.80
2018-12-04T09:10:22.618Z,18.97
2018-12-04T09:12:48.991Z,16.50
2018-12-04T09:15:15.274Z,10.43
2018-12-04T09:17:41.496Z,15.80
2018-12-04T09:20:07.774Z,14.27
2018-12-04T09:22:34.454Z,8.57
2018-12-04T09:25:00.632Z,14.05
2018-12-04T09:27:27.008Z,11.23
2018-12-04T09:29:53.241Z,3.33
2018-12-04T09:32:19.432Z,11.40
2018-12-04T09:34:45.637Z,6.37
2018-12-04T09:37:12.002Z,10.23
2018-12-04T09:39:38.226Z,4.25
2018-12-04T09:42:04.716Z,6.17
2018-12-04T09:44:30.965Z,3.47
2018-12-04T09:46:57.104Z,7.77
2018-12-04T09:49:23.203Z,8.10
2018-12-04T09:51:49.341Z,7.30
2018-12-04T09:54:15.459Z,9.03
2018-12-04T09:56:41.721Z,9.13
2018-12-04T09:59:08.092Z,9.10
2018-12-04T10:01:35.283Z,9.80
2018-12-04T10:04:01.514Z,16.43
2018-12-04T10:06:28.007Z,13.40
2018-12-04T10:08:54.188Z,7.43
2018-12-04T10:11:20.593Z,12.00
2018-12-04T10:13:46.689Z,13.13
2018-12-04T10:16:12.835Z,9.93
2018-12-04T10:18:39.062Z,7.40
2018-12-04T10:21:05.259Z,9.50
2018-12-04T10:23:31.447Z,11.07
2018-12-04T10:25:57.930Z,5.50
2018-12-04T10:28:24.150Z,13.63
2018-12-04T10:30:56.431Z,12.90
2018-12-04T10:33:22.682Z,19.03
2018-12-04T10:35:48.935Z,8.70
2018-12-04T10:38:15.204Z,12.73
2018-12-04T10:47:26.862Z,6.50
2018-12-04T10:49:53.047Z,9.50
2018-12-04T10:52:19.289Z,9.83
2018-12-04T10:54:45.416Z,17.10
2018-12-04T10:57:11.666Z,9.27
2018-12-04T10:59:37.870Z,7.42
2018-12-04T11:02:10.342Z,11.70
2018-12-04T11:04:36.467Z,9.63
2018-12-04T11:07:03.094Z,13.03
2018-12-04T11:09:29.237Z,15.37
2018-12-04T11:11:55.498Z,7.20
2018-12-04T11:14:21.967Z,6.30
2018-12-04T11:16:48.219Z,13.63
2018-12-04T11:19:14.465Z,9.17
2018-12-04T11:21:40.618Z,15.30
2018-12-04T11:24:06.791Z,11.65
2018-12-04T11:26:32.915Z,10.77
2018-12-04T11:28:59.670Z,9.13
2018-12-04T11:31:25.800Z,15.57
2018-12-04T11:33:52.022Z,17.90
2018-12-04T11:36:18.718Z,5.53
2018-12-04T11:38:44.860Z,7.43
2018-12-04T11:41:11.097Z,6.83
2018-12-04T11:43:37.473Z,9.50
2018-12-04T11:46:03.749Z,12.70
2018-12-04T11:48:30.076Z,11.10
2018-12-04T11:51:00.141Z,6.58
2018-12-04T11:53:24.682Z,20.27
2018-12-04T11:55:50.925Z,6.73
2018-12-04T11:58:17.253Z,5.40
2018-12-04T12:00:43.525Z,16.05
2018-12-04T12:03:09.674Z,18.37
2018-12-04T12:05:35.877Z,11.00
2018-12-04T12:08:02.973Z,7.87
2018-12-04T12:10:29.317Z,7.95
2018-12-04T12:13:02.706Z,6.20
2018-12-04T12:15:29.042Z,12.27
2018-12-04T12:17:55.293Z,7.97
2018-12-04T12:20:21.423Z,10.83
2018-12-04T12:22:47.754Z,9.80
2018-12-04T12:25:13.969Z,5.10
2018-12-04T12:27:40.625Z,7.20
2018-12-04T12:30:07.530Z,7.23
2018-12-04T12:32:33.894Z,12.00
2018-12-04T12:35:00.245Z,13.75
2018-12-04T12:37:26.529Z,17.20
2018-12-04T12:39:52.676Z,11.80
2018-12-04T12:42:18.845Z,8.30
2018-12-04T12:47:24.560Z,12.20
2018-12-04T12:49:50.760Z,18.77
2018-12-04T12:52:16.992Z,11.10
2018-12-04T12:57:20.374Z,15.90
2018-12-04T12:59:47.497Z,12.23
2018-12-04T13:02:14.719Z,7.37
2018-12-04T13:04:41.004Z,5.93
2018-12-04T13:07:07.963Z,10.75
2018-12-04T13:09:34.090Z,11.73
2018-12-04T13:12:00.202Z,10.07
2018-12-04T13:14:27.290Z,5.90
2018-12-04T13:16:53.607Z,5.20
2018-12-04T13:19:19.838Z,5.60
2018-12-04T13:21:45.964Z,8.03
2018-12-04T13:24:12.237Z,11.03
2018-12-04T13:26:39.415Z,7.50
2018-12-04T13:29:05.759Z,14.40
2018-12-04T13:31:32.013Z,11.50
2018-12-04T13:33:58.259Z,12.43
2018-12-04T13:36:24.656Z,13.68
2018-12-04T13:38:51.655Z,11.93
2018-12-04T13:41:18.148Z,14.15
2018-12-04T13:43:44.449Z,15.80
2018-12-04T13:46:10.666Z,12.73
2018-12-04T13:48:36.969Z,18.37
2018-12-04T13:51:03.699Z,10.50
2018-12-04T13:53:29.855Z,10.48
2018-12-04T13:55:56.483Z,9.70
2018-12-04T13:58:22.762Z,12.07
2018-12-04T14:00:49.068Z,12.60
2018-12-04T14:03:15.518Z,20.73
2018-12-04T14:05:41.982Z,16.73
2018-12-04T14:08:08.122Z,18.45
2018-12-04T14:10:34.518Z,10.80
2018-12-04T14:13:00.770Z,6.20
2018-12-04T14:15:26.962Z,9.70
2018-12-04T14:17:53.081Z,5.60
2018-12-04T14:20:19.265Z,11.23
2018-12-04T14:22:45.394Z,11.60
2018-12-04T14:25:11.741Z,10.82
2018-12-04T14:27:37.961Z,15.70
2018-12-04T14:30:08.486Z,14.43
2018-12-04T14:32:35.476Z,11.87
2018-12-04T14:35:01.807Z,16.17
2018-12-04T14:37:27.947Z,15.95
2018-12-04T14:39:55.146Z,11.87
2018-12-04T14:42:21.600Z,10.73
2018-12-04T14:44:47.859Z,12.63
2018-12-04T14:47:14.182Z,29.80
2018-12-04T14:49:40.567Z,9.10
2018-12-04T14:52:06.867Z,6.50
2018-12-04T14:54:34.030Z,14.70
2018-12-04T14:57:00.351Z,11.83
2018-12-04T14:59:26.757Z,8.83
2018-12-04T15:01:53.162Z,14.20
2018-12-04T15:04:19.425Z,15.90
2018-12-04T15:06:45.899Z,13.77
2018-12-04T15:09:12.423Z,15.03
2018-12-04T15:11:38.808Z,7.90
2018-12-04T15:14:05.243Z,8.33
2018-12-04T15:16:31.462Z,13.13
2018-12-04T15:18:57.850Z,14.03
2018-12-04T15:21:24.186Z,11.30
2018-12-04T15:23:51.308Z,9.57
2018-12-04T15:26:17.687Z,16.47
2018-12-04T15:28:43.883Z,16.23
2018-12-04T15:31:10.812Z,10.40
2018-12-04T15:33:37.275Z,11.07
2018-12-04T15:36:03.699Z,12.58
2018-12-04T15:38:30.289Z,18.90
2018-12-04T15:40:56.653Z,13.17
2018-12-04T15:43:22.768Z,12.53
2018-12-04T15:45:49.171Z,16.87
2018-12-04T15:48:15.664Z,9.77
2018-12-04T15:50:41.848Z,14.75
2018-12-04T15:53:08.270Z,11.80
2018-12-04T15:55:35.440Z,7.50
2018-12-04T15:58:03.617Z,13.43
2018-12-04T16:00:30.455Z,11.43
2018-12-04T16:02:56.623Z,13.13
2018-12-04T16:05:23.034Z,19.90
2018-12-04T16:07:49.164Z,15.80
2018-12-04T16:10:15.401Z,7.07
2018-12-04T16:12:42.678Z,11.50
2018-12-04T16:15:09.335Z,11.80
2018-12-04T16:17:36.376Z,17.25
2018-12-04T16:20:04.298Z,12.00
2018-12-04T16:22:30.557Z,12.83
2018-12-04T16:24:56.905Z,15.80
2018-12-04T16:27:23.020Z,13.50
2018-12-04T16:29:50.098Z,13.70
2018-12-04T16:32:17.115Z,7.70
2018-12-04T16:34:44.035Z,14.27
2018-12-04T16:37:10.562Z,8.73
2018-12-04T16:39:36.754Z,12.23
2018-12-04T16:42:03.002Z,11.10
2018-12-04T16:44:29.244Z,16.93
2018-12-04T16:46:55.442Z,8.40
2018-12-04T16:49:21.700Z,8.90
2018-12-04T16:51:48.885Z,10.90
2018-12-04T16:54:15.038Z,14.50
2018-12-04T16:56:41.377Z,17.27
2018-12-04T16:59:08.691Z,12.45
2018-12-04T17:01:34.826Z,14.00
2018-12-04T17:04:01.457Z,19.70
2018-12-04T17:06:27.796Z,15.83
2018-12-04T17:08:54.204Z,12.87
2018-12-04T17:11:20.480Z,8.87
2018-12-04T17:13:46.612Z,18.67
2018-12-04T17:16:13.818Z,17.40
2018-12-04T17:18:40.105Z,20.75
2018-12-04T17:21:06.446Z,11.80
2018-12-04T17:23:32.548Z,9.38
2018-12-04T17:25:59.063Z,11.50
2018-12-04T17:28:25.360Z,12.67
2018-12-04T17:30:52.228Z,11.70
2018-12-04T17:33:19.354Z,14.57
2018-12-04T17:35:46.155Z,14.97
2018-12-04T17:38:13.373Z,15.37
2018-12-04T17:40:39.503Z,18.73
2018-12-04T17:43:06.112Z,14.07
2018-12-04T17:45:32.269Z,9.10
2018-12-04T17:47:58.928Z,11.83
2018-12-04T17:50:25.163Z,7.93
2018-12-04T17:52:51.432Z,16.63
2018-12-04T17:55:17.694Z,17.13
2018-12-04T17:57:44.842Z,11.53
2018-12-04T18:00:12.408Z,10.93
2018-12-04T18:02:40.340Z,12.20
2018-12-04T18:05:07.737Z,12.95
2018-12-04T18:07:34.115Z,14.80
2018-12-04T18:10:00.347Z,10.03
2018-12-04T18:12:26.664Z,11.13
2018-12-04T18:14:52.785Z,11.67
2018-12-04T18:17:19.455Z,11.83
2018-12-04T18:19:46.137Z,9.40
2018-12-04T18:22:14.303Z,15.30
2018-12-04T18:24:41.385Z,19.83
2018-12-04T18:27:07.758Z,10.20
2018-12-04T18:29:35.419Z,11.67
2018-12-04T18:32:02.010Z,20.97
2018-12-04T18:34:28.173Z,14.10
2018-12-04T18:36:55.086Z,15.00
2018-12-04T18:39:21.310Z,10.87
2018-12-04T18:41:47.715Z,15.23
2018-12-04T18:44:14.319Z,13.13
2018-12-04T18:49:19.866Z,18.73
2018-12-04T18:51:46.199Z,11.48
2018-12-04T18:54:12.322Z,9.87
2018-12-04T18:56:38.560Z,10.93
2018-12-04T18:59:04.818Z,13.03
2018-12-04T19:01:31.296Z,22.87
2018-12-04T19:03:58.124Z,10.17
2018-12-04T19:06:24.520Z,9.27
2018-12-04T19:08:50.666Z,10.88
2018-12-04T19:11:17.240Z,15.40
2018-12-04T19:13:43.752Z,12.75
2018-12-04T19:16:10.513Z,19.27
2018-12-04T19:18:36.810Z,10.20
2018-12-04T19:21:05.329Z,12.47
2018-12-04T19:23:31.849Z,8.00
2018-12-04T19:25:58.746Z,12.85
2018-12-04T19:28:25.357Z,18.23
2018-12-04T19:30:51.586Z,15.48
2018-12-04T19:33:18.004Z,9.90
2018-12-04T19:35:45.000Z,16.90
2018-12-04T19:38:11.376Z,12.33
2018-12-04T19:40:37.666Z,8.90
2018-12-04T19:43:04.195Z,15.67
2018-12-04T19:45:30.813Z,10.72
2018-12-04T19:47:57.095Z,12.13
2018-12-04T19:50:23.748Z,15.13
2018-12-04T19:52:50.918Z,15.48
2018-12-04T19:55:17.515Z,16.50
2018-12-04T19:57:43.794Z,14.30
2018-12-04T20:00:10.120Z,14.60
2018-12-04T20:02:36.600Z,15.83
2018-12-04T20:05:03.831Z,12.83
2018-12-04T20:07:30.236Z,21.17
2018-12-04T20:09:56.466Z,11.50
2018-12-04T20:12:23.057Z,10.90
2018-12-04T20:14:49.669Z,8.93
2018-12-04T20:17:16.117Z,19.98
2018-12-04T20:19:42.325Z,17.90
2018-12-04T20:22:08.772Z,14.93
2018-12-04T20:24:35.246Z,20.65
2018-12-04T20:27:01.600Z,19.20
2018-12-04T20:29:27.906Z,14.63
2018-12-04T20:31:54.423Z,27.10
2018-12-04T20:34:20.760Z,11.60
2018-12-04T20:36:47.002Z,16.77
2018-12-04T20:39:13.460Z,23.43
2018-12-04T20:41:40.013Z,16.97
2018-12-04T20:44:06.966Z,19.13
2018-12-04T20:46:33.429Z,10.50
2018-12-04T20:48:59.858Z,17.07
2018-12-04T20:51:26.194Z,7.50
2018-12-04T20:53:52.828Z,16.45
2018-12-04T20:56:19.207Z,13.20
2018-12-04T20:58:46.062Z,18.73
2018-12-04T21:01:12.753Z,10.23
2018-12-04T21:03:39.135Z,21.20
2018-12-04T21:06:05.539Z,11.67
2018-12-04T21:08:31.849Z,11.57
2018-12-04T21:10:58.564Z,9.97
2018-12-04T21:13:25.642Z,22.60
2018-12-04T21:15:52.068Z,16.67
2018-12-04T21:18:18.260Z,6.45
2018-12-04T21:20:45.391Z,12.50
2018-12-04T21:23:11.620Z,15.17
2018-12-04T21:25:38.114Z,11.90
2018-12-04T21:28:10.671Z,11.30
2018-12-04T21:30:43.253Z,11.53
2018-12-04T21:36:18.530Z,12.50
2018-12-04T21:38:50.780Z,11.70
2018-12-04T21:44:08.941Z,12.23
2018-12-04T21:49:43.253Z,9.93
2018-12-04T21:52:09.623Z,14.05
2018-12-04T21:54:36.103Z,22.90
2018-12-04T21:57:02.704Z,8.83
2018-12-04T21:59:29.041Z,7.42
2018-12-04T22:01:55.428Z,16.63
2018-12-04T22:04:22.314Z,12.30
2018-12-04T22:06:48.573Z,16.63
2018-12-04T22:09:14.800Z,13.17
2018-12-04T22:11:41.049Z,7.43
2018-12-04T22:14:07.208Z,19.93
2018-12-04T22:16:33.509Z,11.00
2018-12-04T22:18:59.757Z,15.10
2018-12-04T22:21:25.986Z,11.83
2018-12-04T22:23:52.398Z,9.17
2018-12-04T22:26:18.688Z,11.03
2018-12-04T22:28:44.857Z,5.40
2018-12-04T22:31:11.104Z,13.97
2018-12-04T22:33:37.466Z,7.80
2018-12-04T22:36:03.701Z,12.47
2018-12-04T22:38:29.833Z,13.03
2018-12-04T22:40:56.207Z,9.10
2018-12-04T22:43:22.476Z,14.65
2018-12-04T22:45:48.617Z,13.20
2018-12-04T22:48:14.789Z,9.70
2018-12-04T22:50:40.973Z,11.90
2018-12-04T22:53:07.293Z,9.18
2018-12-04T22:55:33.854Z,20.07
2018-12-04T22:58:00.075Z,13.80
2018-12-04T23:00:29.499Z,10.03
2018-12-04T23:02:55.787Z,16.47
2018-12-04T23:05:21.977Z,15.33
2018-12-04T23:07:48.265Z,16.10
2018-12-04T23:10:14.630Z,6.10
2018-12-04T23:12:40.871Z,10.70
2018-12-04T23:15:07.317Z,7.10
2018-12-04T23:17:33.597Z,11.90
2018-12-04T23:19:59.931Z,6.23
2018-12-04T23:22:26.233Z,5.80
2018-12-04T23:24:52.673Z,6.87
2018-12-04T23:27:18.937Z,11.25
2018-12-04T23:29:45.085Z,18.80
2018-12-04T23:32:11.468Z,9.00
2018-12-04T23:34:37.726Z,6.60
2018-12-04T23:37:04.008Z,12.37
2018-12-04T23:39:30.167Z,13.10
2018-12-04T23:41:56.478Z,12.00
2018-12-04T23:44:24.096Z,12.43
2018-12-04T23:46:50.373Z,16.03
2018-12-04T23:49:16.552Z,17.30
2018-12-04T23:51:42.901Z,14.10
2018-12-04T23:54:09.045Z,11.70
2018-12-04T23:56:35.307Z,10.53
2018-12-04T23:59:01.613Z,13.88
